Time;durP1;ratioP1;P1;durP2;ratioP2;P2;SDS_P1;SDS_P2;PMS_P1;PMS_P2;Temp;Humidity;BMP_temperature;BMP_pressure;BME280_temperature;BME280_humidity;BME280_pressure;Samples;Min_cycle;Max_cycle;Signal;HPM_P1;HPM_P2
2021/10/24 00:00:21;;;;;;;5.97;4.20;;;27.80;45.40;;;;;;4261362;27;20058;-75
2021/10/24 00:02:25;;;;;;;5.45;4.10;;;27.80;45.30;;;;;;4264123;27;20100;-70
2021/10/24 00:04:28;;;;;;;6.30;4.50;;;27.80;45.30;;;;;;4253905;27;20046;-75
2021/10/24 00:06:32;;;;;;;6.10;4.38;;;27.80;45.30;;;;;;4265930;27;20418;-74
2021/10/24 00:08:35;;;;;;;6.97;4.80;;;27.80;45.30;;;;;;4257427;27;20047;-71
2021/10/24 00:10:38;;;;;;;5.43;4.40;;;27.80;45.30;;;;;;4260816;27;20050;-72
2021/10/24 00:12:42;;;;;;;5.80;4.25;;;27.80;45.30;;;;;;4264255;27;20055;-68
2021/10/24 00:14:45;;;;;;;4.93;4.00;;;27.80;45.20;;;;;;4250943;27;20062;-67
2021/10/24 00:16:48;;;;;;;6.45;4.22;;;27.80;45.30;;;;;;4248537;27;20055;-67
2021/10/24 00:18:51;;;;;;;7.47;4.28;;;27.80;45.30;;;;;;4254816;27;20426;-67
2021/10/24 00:20:55;;;;;;;5.00;3.40;;;27.80;45.30;;;;;;4235364;27;20116;-67
2021/10/24 00:23:00;;;;;;;7.55;4.40;;;27.80;45.20;;;;;;4250252;27;20065;-71
2021/10/24 00:25:04;;;;;;;6.03;4.30;;;27.80;45.30;;;;;;4253559;27;20135;-69
2021/10/24 00:27:07;;;;;;;6.70;4.72;;;27.80;45.30;;;;;;4265380;27;20540;-74
2021/10/24 00:29:10;;;;;;;8.60;4.30;;;27.80;45.20;;;;;;4258645;27;20071;-74
2021/10/24 00:31:13;;;;;;;5.05;3.97;;;27.80;45.30;;;;;;4258997;27;20107;-73
2021/10/24 00:33:16;;;;;;;6.15;3.95;;;27.80;45.30;;;;;;4263413;27;20057;-68
2021/10/24 00:35:19;;;;;;;5.85;4.13;;;27.80;45.20;;;;;;4259623;27;20051;-71
2021/10/24 00:37:22;;;;;;;4.95;4.00;;;27.80;45.20;;;;;;4248022;27;20063;-74
2021/10/24 00:39:27;;;;;;;6.05;3.65;;;27.80;45.20;;;;;;4253780;27;20054;-73
2021/10/24 00:41:31;;;;;;;5.72;3.78;;;27.80;45.20;;;;;;4254483;27;20055;-74
2021/10/24 00:43:34;;;;;;;7.95;3.50;;;27.80;45.20;;;;;;4248841;27;20143;-74
2021/10/24 00:45:38;;;;;;;6.40;4.05;;;27.80;45.20;;;;;;4259205;27;20422;-73
2021/10/24 00:47:41;;;;;;;5.55;3.83;;;27.80;45.10;;;;;;4248063;27;20048;-72
2021/10/24 00:49:44;;;;;;;5.78;3.80;;;27.80;45.20;;;;;;4253088;27;20050;-74
2021/10/24 00:51:47;;;;;;;6.22;3.90;;;27.80;45.10;;;;;;4254956;27;20051;-74
2021/10/24 00:53:50;;;;;;;4.40;3.58;;;27.80;45.20;;;;;;4248066;27;20055;-68
2021/10/24 00:55:57;;;;;;;5.47;3.28;;;27.80;45.20;;;;;;4249603;27;20125;-72
2021/10/24 00:58:01;;;;;;;4.35;3.33;;;27.80;45.20;;;;;;4264621;27;20050;-76
2021/10/24 01:00:08;;;;;;;11.68;3.70;;;27.80;45.10;;;;;;4258930;27;20500;-70
2021/10/24 01:02:11;;;;;;;4.93;3.53;;;27.80;45.10;;;;;;4258075;27;20046;-76
2021/10/24 01:04:14;;;;;;;6.55;3.17;;;27.80;45.10;;;;;;4264186;27;20460;-74
2021/10/24 01:06:18;;;;;;;5.30;3.20;;;27.80;45.10;;;;;;4251957;27;20051;-74
2021/10/24 01:08:21;;;;;;;4.57;3.22;;;27.80;45.10;;;;;;4264102;27;20051;-71
2021/10/24 01:10:24;;;;;;;5.00;2.90;;;27.80;45.10;;;;;;4259156;27;20050;-75
2021/10/24 01:12:28;;;;;;;7.43;3.33;;;27.80;45.10;;;;;;4257223;27;20062;-73
2021/10/24 01:14:32;;;;;;;4.03;2.92;;;27.80;45.10;;;;;;4264177;27;20625;-69
2021/10/24 01:16:36;;;;;;;5.32;3.20;;;27.80;45.10;;;;;;4252087;27;20069;-67
2021/10/24 01:18:39;;;;;;;4.43;3.38;;;27.80;45.10;;;;;;4264454;27;20066;-74
2021/10/24 01:20:42;;;;;;;4.55;3.10;;;27.80;45.10;;;;;;4258924;27;20049;-70
2021/10/24 01:22:47;;;;;;;5.20;3.25;;;27.80;45.10;;;;;;4256721;27;20047;-74
2021/10/24 01:24:50;;;;;;;4.15;3.10;;;27.80;45.10;;;;;;4264426;27;20083;-71
2021/10/24 01:26:55;;;;;;;5.45;3.08;;;27.80;45.00;;;;;;4252009;27;20066;-75
2021/10/24 01:28:58;;;;;;;8.38;3.40;;;27.80;45.10;;;;;;4264635;27;20050;-69
2021/10/24 01:31:01;;;;;;;5.43;3.28;;;27.70;45.00;;;;;;4258980;27;20047;-68
2021/10/24 01:33:04;;;;;;;5.55;3.05;;;27.70;45.00;;;;;;4256316;27;20142;-72
2021/10/24 01:35:08;;;;;;;4.38;2.70;;;27.70;45.00;;;;;;4264159;27;20713;-74
2021/10/24 01:37:11;;;;;;;3.42;2.80;;;27.80;45.10;;;;;;4259978;27;20085;-71
2021/10/24 01:39:16;;;;;;;4.28;2.83;;;27.70;45.00;;;;;;4246971;27;20063;-72
2021/10/24 01:41:21;;;;;;;3.47;3.03;;;27.80;45.00;;;;;;4250968;27;20111;-72
2021/10/24 01:43:25;;;;;;;5.60;3.10;;;27.80;45.10;;;;;;4254735;27;20063;-72
2021/10/24 01:45:29;;;;;;;3.90;3.10;;;27.80;45.10;;;;;;4247012;27;20051;-72
2021/10/24 01:47:32;;;;;;;4.53;3.17;;;27.70;45.00;;;;;;4246942;27;20058;-73
2021/10/24 01:49:35;;;;;;;4.78;3.05;;;27.80;45.00;;;;;;4247039;27;20499;-72
2021/10/24 01:51:38;;;;;;;3.35;2.80;;;27.80;45.00;;;;;;4250830;27;20051;-72
2021/10/24 01:53:43;;;;;;;4.18;3.20;;;27.70;45.00;;;;;;4255427;27;20100;-74
2021/10/24 01:55:48;;;;;;;5.25;2.90;;;27.70;45.00;;;;;;4246597;27;20051;-67
2021/10/24 01:57:53;;;;;;;4.28;3.03;;;27.70;44.90;;;;;;4259335;27;20499;-72
2021/10/24 01:59:56;;;;;;;4.78;2.80;;;27.70;44.90;;;;;;4246845;27;20062;-73
2021/10/24 02:01:59;;;;;;;4.55;2.90;;;27.70;44.90;;;;;;4250386;27;20051;-75
2021/10/24 02:04:02;;;;;;;4.07;2.97;;;27.70;44.90;;;;;;4255097;27;20059;-72
2021/10/24 02:06:06;;;;;;;5.47;3.38;;;27.70;44.90;;;;;;4228509;28;20059;-73
2021/10/24 02:08:10;;;;;;;5.18;2.97;;;27.70;44.90;;;;;;4258984;27;20054;-68
2021/10/24 02:10:14;;;;;;;5.05;3.25;;;27.70;44.90;;;;;;4246422;27;20509;-74
2021/10/24 02:12:19;;;;;;;4.97;3.28;;;27.70;44.90;;;;;;4250207;27;20043;-70
2021/10/24 02:14:21;;;;;;;5.55;3.47;;;27.80;45.00;;;;;;4254959;27;20415;-71
2021/10/24 02:16:25;;;;;;;7.70;3.40;;;27.70;44.90;;;;;;4246371;27;20491;-72
2021/10/24 02:18:28;;;;;;;4.35;3.22;;;27.70;44.90;;;;;;4258162;27;20046;-71
2021/10/24 02:20:31;;;;;;;6.40;3.15;;;27.70;44.90;;;;;;4246538;27;20051;-73
2021/10/24 02:22:34;;;;;;;4.75;3.53;;;27.70;44.90;;;;;;4249200;27;20446;-74
2021/10/24 02:24:38;;;;;;;4.93;3.25;;;27.70;44.90;;;;;;4255572;27;20507;-75
2021/10/24 02:26:41;;;;;;;4.22;2.85;;;27.70;44.90;;;;;;4246158;27;20100;-75
2021/10/24 02:28:45;;;;;;;3.88;3.20;;;27.70;44.80;;;;;;4257771;27;20051;-74
2021/10/24 02:30:48;;;;;;;4.97;3.30;;;27.70;44.80;;;;;;4246742;27;20213;-68
2021/10/24 02:32:51;;;;;;;5.75;3.17;;;27.70;44.80;;;;;;4249152;27;20621;-74
2021/10/24 02:34:54;;;;;;;5.05;3.30;;;27.70;44.80;;;;;;4256107;27;20054;-69
2021/10/24 02:36:58;;;;;;;5.75;3.08;;;27.70;44.80;;;;;;4246378;27;20062;-67
2021/10/24 02:39:02;;;;;;;4.70;3.10;;;27.70;44.80;;;;;;4232022;27;20059;-74
2021/10/24 02:41:05;;;;;;;4.38;3.13;;;27.70;44.80;;;;;;4261957;27;20495;-74
2021/10/24 02:43:08;;;;;;;5.70;3.38;;;27.70;44.80;;;;;;4258792;27;20058;-74
2021/10/24 02:45:12;;;;;;;6.93;3.00;;;27.70;44.80;;;;;;4256281;27;20055;-74
2021/10/24 02:47:17;;;;;;;5.43;3.60;;;27.70;44.80;;;;;;4245918;27;20407;-73
2021/10/24 02:49:20;;;;;;;4.55;3.25;;;27.70;44.80;;;;;;4256874;27;20047;-72
2021/10/24 02:51:23;;;;;;;4.47;3.03;;;27.70;44.80;;;;;;4247633;27;20438;-73
2021/10/24 02:53:26;;;;;;;4.53;3.38;;;27.70;44.80;;;;;;4247454;27;20107;-72
2021/10/24 02:55:29;;;;;;;4.63;3.10;;;27.70;44.80;;;;;;4256522;27;20054;-74
2021/10/24 02:57:32;;;;;;;4.53;3.03;;;27.70;44.80;;;;;;4245785;27;20116;-74
2021/10/24 02:59:35;;;;;;;5.93;2.90;;;27.70;44.80;;;;;;4256039;27;20047;-73
2021/10/24 03:01:40;;;;;;;3.95;2.83;;;27.70;44.70;;;;;;4248003;27;20047;-73
2021/10/24 03:03:43;;;;;;;4.90;3.30;;;27.70;44.80;;;;;;4247248;27;20050;-74
2021/10/24 03:05:46;;;;;;;4.18;3.15;;;27.70;44.80;;;;;;4257157;27;20047;-66
2021/10/24 03:07:49;;;;;;;4.65;3.05;;;27.70;44.80;;;;;;4245964;27;20047;-70
2021/10/24 03:09:52;;;;;;;5.63;3.22;;;27.70;44.70;;;;;;4255312;27;20054;-66
2021/10/24 03:11:55;;;;;;;5.93;3.50;;;27.70;44.70;;;;;;4248330;27;20055;-70
2021/10/24 03:13:58;;;;;;;4.65;3.10;;;27.70;44.70;;;;;;4247006;27;20044;-71
2021/10/24 03:16:01;;;;;;;5.13;3.42;;;27.70;44.70;;;;;;4257498;27;20054;-74
2021/10/24 03:18:06;;;;;;;4.90;2.97;;;27.70;44.70;;;;;;4245665;28;20051;-73
2021/10/24 03:20:10;;;;;;;4.15;2.95;;;27.70;44.70;;;;;;4254664;27;20051;-68
2021/10/24 03:22:13;;;;;;;5.05;3.30;;;27.70;44.60;;;;;;4248916;27;20055;-66
2021/10/24 03:24:18;;;;;;;3.45;3.00;;;27.60;44.60;;;;;;4249513;27;20531;-71
2021/10/24 03:26:21;;;;;;;4.38;3.35;;;27.60;44.60;;;;;;4250879;27;20046;-74
2021/10/24 03:28:24;;;;;;;5.38;3.15;;;27.70;44.60;;;;;;4263073;27;20411;-73
2021/10/24 03:30:27;;;;;;;5.32;3.28;;;27.70;44.60;;;;;;4254814;27;20112;-66
2021/10/24 03:32:30;;;;;;;4.43;3.03;;;27.60;44.60;;;;;;4262521;27;20403;-73
2021/10/24 03:34:34;;;;;;;5.18;3.28;;;27.70;44.60;;;;;;4264734;27;20135;-69
2021/10/24 03:36:38;;;;;;;5.72;3.15;;;27.60;44.60;;;;;;4254584;27;20051;-74
2021/10/24 03:38:42;;;;;;;4.90;3.15;;;27.70;44.50;;;;;;4266545;27;20054;-74
2021/10/24 03:40:45;;;;;;;5.43;3.22;;;27.70;44.60;;;;;;4257630;27;20062;-70
2021/10/24 03:42:48;;;;;;;4.40;3.30;;;27.60;44.50;;;;;;4261874;27;20127;-70
2021/10/24 03:44:51;;;;;;;4.53;3.20;;;27.70;44.50;;;;;;4264529;27;20246;-70
2021/10/24 03:46:54;;;;;;;4.07;3.08;;;27.70;44.60;;;;;;4254409;27;20054;-73
2021/10/24 03:48:57;;;;;;;4.18;2.78;;;27.60;44.50;;;;;;4266297;27;20051;-74
2021/10/24 03:51:02;;;;;;;4.40;2.83;;;27.70;44.50;;;;;;4258114;27;20051;-71
2021/10/24 03:53:05;;;;;;;4.82;3.20;;;27.70;44.50;;;;;;4261320;27;20066;-67
2021/10/24 03:55:12;;;;;;;3.95;2.60;;;27.70;44.50;;;;;;4264334;27;20089;-75
2021/10/24 03:57:15;;;;;;;3.67;3.00;;;27.60;44.50;;;;;;4254166;27;20050;-72
2021/10/24 03:59:18;;;;;;;4.85;2.95;;;27.60;44.40;;;;;;4265834;27;20076;-70
2021/10/24 04:01:21;;;;;;;4.70;3.08;;;27.60;44.40;;;;;;4257848;27;20092;-71
2021/10/24 04:03:25;;;;;;;5.95;3.00;;;27.70;44.50;;;;;;4260503;27;20463;-66
2021/10/24 04:05:28;;;;;;;5.38;3.20;;;27.70;44.50;;;;;;4264160;27;20047;-70
2021/10/24 04:07:33;;;;;;;3.83;2.80;;;27.70;44.50;;;;;;4254090;27;20426;-69
2021/10/24 04:09:36;;;;;;;5.05;2.90;;;27.60;44.40;;;;;;4265352;27;20054;-70
2021/10/24 04:11:39;;;;;;;3.67;3.08;;;27.60;44.40;;;;;;4258255;27;20047;-69
2021/10/24 04:13:43;;;;;;;4.72;2.90;;;27.60;44.30;;;;;;4260511;27;20043;-66
2021/10/24 04:15:46;;;;;;;3.80;2.70;;;27.60;44.40;;;;;;4263864;27;20054;-74
2021/10/24 04:17:49;;;;;;;5.18;3.03;;;27.60;44.30;;;;;;4232851;27;20058;-73
2021/10/24 04:19:52;;;;;;;5.97;3.55;;;27.60;44.90;;;;;;4248434;27;20534;-68
2021/10/24 04:21:56;;;;;;;4.60;3.20;;;27.60;44.30;;;;;;4254770;27;20054;-72
2021/10/24 04:24:00;;;;;;;5.15;3.08;;;27.60;44.30;;;;;;4253286;27;20449;-73
2021/10/24 04:26:04;;;;;;;4.38;2.47;;;27.60;44.20;;;;;;4249472;27;20090;-72
2021/10/24 04:28:07;;;;;;;4.95;3.00;;;27.60;44.20;;;;;;4259937;27;20047;-72
2021/10/24 04:30:11;;;;;;;7.10;2.90;;;27.60;44.30;;;;;;4248122;27;20541;-74
2021/10/24 04:32:14;;;;;;;3.60;2.70;;;27.60;44.20;;;;;;4253969;27;20103;-74
2021/10/24 04:34:17;;;;;;;5.70;3.22;;;27.60;44.20;;;;;;4254522;27;20062;-67
2021/10/24 04:36:20;;;;;;;4.90;2.85;;;27.60;44.20;;;;;;4249159;27;20062;-72
2021/10/24 04:38:23;;;;;;;4.38;3.10;;;27.60;44.20;;;;;;4259765;27;20084;-68
2021/10/24 04:40:28;;;;;;;3.33;2.65;;;27.60;44.20;;;;;;4247741;27;20075;-74
2021/10/24 04:42:31;;;;;;;4.00;2.72;;;27.60;44.20;;;;;;4253254;27;20055;-68
2021/10/24 04:44:34;;;;;;;4.35;2.83;;;27.60;44.20;;;;;;4254779;27;20108;-72
2021/10/24 04:46:38;;;;;;;4.07;2.78;;;27.60;44.20;;;;;;4230143;27;20056;-68
2021/10/24 04:48:41;;;;;;;4.00;2.80;;;27.60;44.20;;;;;;4259794;27;20558;-69
2021/10/24 04:50:44;;;;;;;3.13;2.58;;;27.60;44.20;;;;;;4247706;27;20055;-74
2021/10/24 04:52:47;;;;;;;4.13;3.03;;;27.60;44.20;;;;;;4234569;27;20062;-68
2021/10/24 04:54:50;;;;;;;3.92;2.80;;;27.60;44.20;;;;;;4255285;27;20062;-70
2021/10/24 04:56:55;;;;;;;4.80;2.80;;;27.60;44.10;;;;;;4247690;27;20055;-72
2021/10/24 04:58:58;;;;;;;5.97;3.33;;;27.60;44.10;;;;;;4252341;27;20051;-66
2021/10/24 05:01:02;;;;;;;4.32;2.90;;;27.50;44.10;;;;;;4264538;27;20072;-73
2021/10/24 05:03:05;;;;;;;4.03;2.75;;;27.50;44.10;;;;;;4259551;27;20100;-71
2021/10/24 05:05:10;;;;;;;4.35;2.95;;;27.60;44.10;;;;;;4256953;27;20057;-73
2021/10/24 05:07:13;;;;;;;4.63;3.03;;;27.60;44.20;;;;;;4264634;27;20528;-74
2021/10/24 05:09:17;;;;;;;4.05;2.70;;;27.60;44.10;;;;;;4251481;27;20055;-72
2021/10/24 05:11:20;;;;;;;4.07;3.15;;;27.50;44.10;;;;;;4264799;27;20433;-70
2021/10/24 05:13:24;;;;;;;3.67;2.50;;;27.60;44.10;;;;;;4259958;27;20055;-69
2021/10/24 05:15:28;;;;;;;4.15;2.53;;;27.60;44.20;;;;;;4256393;27;20578;-71
2021/10/24 05:17:31;;;;;;;3.45;2.72;;;27.60;44.10;;;;;;4264568;27;20054;-72
2021/10/24 05:19:34;;;;;;;4.88;2.80;;;27.60;44.10;;;;;;4260295;27;20527;-71
2021/10/24 05:21:37;;;;;;;4.00;2.78;;;27.50;44.10;;;;;;4247784;27;20529;-68
2021/10/24 05:23:40;;;;;;;5.78;2.90;;;27.50;44.10;;;;;;4252721;27;20057;-73
2021/10/24 05:25:43;;;;;;;6.75;3.20;;;27.50;44.00;;;;;;4255701;27;20047;-72
2021/10/24 05:27:48;;;;;;;3.67;2.67;;;27.60;44.10;;;;;;4264525;27;20058;-67
2021/10/24 05:29:52;;;;;;;4.40;2.75;;;27.60;44.10;;;;;;4251831;27;20464;-70
2021/10/24 05:31:56;;;;;;;4.45;2.72;;;27.50;44.10;;;;;;4246791;27;20051;-71
2021/10/24 05:33:59;;;;;;;4.53;2.95;;;27.60;44.10;;;;;;4250751;27;20407;-67
2021/10/24 05:36:02;;;;;;;6.28;2.92;;;27.50;44.00;;;;;;4256191;27;20062;-71
2021/10/24 05:38:05;;;;;;;3.65;2.50;;;27.60;44.10;;;;;;4247054;27;20043;-69
2021/10/24 05:40:11;;;;;;;4.80;2.88;;;27.50;44.00;;;;;;4251555;27;20054;-73
2021/10/24 05:42:14;;;;;;;4.15;2.50;;;27.50;44.00;;;;;;4263736;27;20115;-73
2021/10/24 05:44:19;;;;;;;3.33;2.42;;;27.50;44.00;;;;;;4260428;27;20046;-68
2021/10/24 05:46:23;;;;;;;;;;;27.50;44.00;;;;;;4255686;27;20062;-68
2021/10/24 05:48:26;;;;;;;3.92;2.70;;;27.50;44.00;;;;;;4264052;27;19919;-71
2021/10/24 05:50:29;;;;;;;4.28;2.83;;;27.50;44.00;;;;;;4251724;27;20055;-73
2021/10/24 05:52:33;;;;;;;3.42;2.65;;;27.50;44.00;;;;;;4263221;27;20051;-74
2021/10/24 05:54:36;;;;;;;3.20;2.42;;;27.50;43.90;;;;;;4260602;27;20119;-72
2021/10/24 05:56:39;;;;;;;4.82;2.72;;;27.50;43.80;;;;;;4254137;27;20067;-72
2021/10/24 05:58:42;;;;;;;3.95;2.78;;;27.50;43.90;;;;;;4264062;27;20105;-71
2021/10/24 06:00:45;;;;;;;4.22;2.70;;;27.50;43.90;;;;;;4252122;27;20051;-74
2021/10/24 06:02:50;;;;;;;4.28;2.40;;;27.50;43.80;;;;;;4246876;27;20592;-67
2021/10/24 06:04:57;;;;;;;4.95;2.85;;;27.50;43.90;;;;;;4252083;27;20058;-75
2021/10/24 06:07:00;;;;;;;4.55;2.30;;;27.50;43.90;;;;;;4254304;27;20423;-75
2021/10/24 06:09:04;;;;;;;4.85;2.63;;;27.50;43.90;;;;;;4263559;27;20383;-75
2021/10/24 06:11:17;;;;;;;4.15;2.60;;;27.50;43.90;;;;;;4251755;27;20055;-72
2021/10/24 06:13:20;;;;;;;3.13;2.30;;;27.50;43.80;;;;;;4246326;27;20054;-72
2021/10/24 06:15:25;;;;;;;3.53;2.47;;;27.50;43.80;;;;;;4240994;27;20048;-73
2021/10/24 06:17:28;;;;;;;5.93;3.45;;;27.40;43.80;;;;;;4255131;27;20051;-67
2021/10/24 06:19:32;;;;;;;3.90;2.53;;;27.50;43.80;;;;;;4246660;27;20054;-68
2021/10/24 06:21:35;;;;;;;2.92;2.35;;;27.50;43.90;;;;;;4258430;27;20123;-73
2021/10/24 06:23:38;;;;;;;4.93;2.55;;;27.50;43.80;;;;;;4246317;27;20526;-72
2021/10/24 06:25:41;;;;;;;3.08;2.63;;;27.50;43.80;;;;;;4249369;27;20069;-71
2021/10/24 06:27:45;;;;;;;4.07;2.75;;;27.50;43.80;;;;;;4255586;27;20051;-69
2021/10/24 06:29:48;;;;;;;4.35;2.67;;;27.50;43.80;;;;;;4246449;27;20054;-73
2021/10/24 06:31:51;;;;;;;3.38;2.22;;;27.50;43.80;;;;;;4257352;27;20059;-69
2021/10/24 06:33:55;;;;;;;3.35;2.22;;;27.50;43.80;;;;;;4246936;27;20059;-71
2021/10/24 06:35:59;;;;;;;4.32;2.47;;;27.50;43.80;;;;;;4248855;27;20051;-72
2021/10/24 06:38:02;;;;;;;4.13;2.30;;;27.50;43.80;;;;;;4255926;27;20077;-70
2021/10/24 06:40:06;;;;;;;2.40;1.90;;;27.50;43.80;;;;;;4246139;27;20058;-69
2021/10/24 06:42:10;;;;;;;3.92;2.17;;;27.50;43.80;;;;;;4257595;27;20053;-75
2021/10/24 06:44:13;;;;;;;3.90;2.30;;;27.50;43.80;;;;;;4246925;27;20055;-69
2021/10/24 06:46:16;;;;;;;3.35;2.33;;;27.50;43.80;;;;;;4248286;27;20043;-72
2021/10/24 06:48:19;;;;;;;4.97;2.58;;;27.50;43.80;;;;;;4256297;27;20051;-69
2021/10/24 06:50:22;;;;;;;4.30;2.20;;;27.40;43.70;;;;;;4245847;27;20047;-73
2021/10/24 06:52:27;;;;;;;3.03;2.20;;;27.40;43.70;;;;;;4256683;27;20073;-72
2021/10/24 06:54:30;;;;;;;3.58;2.30;;;27.40;43.70;;;;;;4247437;27;20633;-70
2021/10/24 06:56:33;;;;;;;3.63;2.50;;;27.40;43.70;;;;;;4247798;27;20457;-73
2021/10/24 06:58:36;;;;;;;4.55;2.60;;;27.40;43.60;;;;;;4238380;27;20048;-72
2021/10/24 07:00:39;;;;;;;3.55;2.42;;;27.40;43.70;;;;;;4245962;27;20116;-73
2021/10/24 07:02:42;;;;;;;3.20;2.30;;;27.50;44.40;;;;;;4237583;27;20636;-70
2021/10/24 07:04:46;;;;;;;3.38;2.25;;;27.40;43.60;;;;;;4246934;27;20556;-71
2021/10/24 07:06:49;;;;;;;6.43;2.50;;;27.40;43.70;;;;;;4246987;27;20043;-72
2021/10/24 07:08:53;;;;;;;6.03;2.55;;;27.50;43.70;;;;;;4251419;27;20118;-73
2021/10/24 07:10:56;;;;;;;4.22;2.22;;;27.50;43.70;;;;;;4262928;27;20051;-73
2021/10/24 07:12:59;;;;;;;5.65;2.25;;;27.50;43.70;;;;;;4252786;27;20055;-72
2021/10/24 07:15:04;;;;;;;3.10;2.17;;;27.40;43.60;;;;;;4260151;27;20046;-72
2021/10/24 07:17:07;;;;;;;4.45;2.20;;;27.40;43.70;;;;;;4261218;27;20103;-69
2021/10/24 07:19:10;;;;;;;7.22;2.40;;;27.50;43.70;;;;;;4244185;27;20055;-73
2021/10/24 07:21:15;;;;;;;;;;;27.50;43.70;;;;;;4263368;27;20105;-70
2021/10/24 07:23:18;;;;;;;3.65;2.22;;;27.50;43.70;;;;;;4252801;27;19972;-72
2021/10/24 07:25:23;;;;;;;4.63;2.30;;;27.50;43.80;;;;;;4259746;27;20091;-72
2021/10/24 07:27:25;;;;;;;;;;;27.50;43.70;;;;;;4261625;27;20051;-73
2021/10/24 07:29:28;;;;;;;3.92;2.42;;;27.50;43.80;;;;;;4251000;27;19972;-72
2021/10/24 07:31:32;;;;;;;3.38;2.30;;;27.50;43.80;;;;;;4262412;27;20057;-70
2021/10/24 07:33:35;;;;;;;4.07;2.40;;;27.50;43.70;;;;;;4253195;27;20418;-68
2021/10/24 07:35:40;;;;;;;4.10;2.38;;;27.40;43.70;;;;;;4259154;27;20053;-70
2021/10/24 07:37:43;;;;;;;;;;;27.50;43.70;;;;;;4261835;27;20043;-72
2021/10/24 07:39:46;;;;;;;4.18;2.03;;;27.50;43.80;;;;;;4250830;27;20286;-72
2021/10/24 07:41:52;;;;;;;5.13;2.40;;;27.50;43.70;;;;;;4262493;27;20404;-67
2021/10/24 07:43:55;;;;;;;4.30;2.30;;;27.50;43.70;;;;;;4253236;27;20051;-73
2021/10/24 07:45:58;;;;;;;4.10;2.10;;;27.50;43.70;;;;;;4258904;27;20051;-66
2021/10/24 07:48:04;;;;;;;4.95;2.25;;;27.50;43.70;;;;;;4260995;27;20435;-66
2021/10/24 07:50:09;;;;;;;5.55;2.20;;;27.50;43.70;;;;;;4250818;27;20186;-65
2021/10/24 07:52:13;;;;;;;4.75;2.15;;;27.50;43.70;;;;;;4262494;27;20448;-72
2021/10/24 07:54:16;;;;;;;4.53;2.15;;;27.50;43.70;;;;;;4235059;28;20048;-71
2021/10/24 07:56:20;;;;;;;3.25;2.03;;;27.50;43.70;;;;;;4259177;27;20054;-73
2021/10/24 07:58:25;;;;;;;2.38;1.90;;;27.50;43.70;;;;;;4260888;27;20055;-66
2021/10/24 08:00:28;;;;;;;3.47;2.13;;;27.50;43.60;;;;;;4250611;27;20051;-72
2021/10/24 08:02:32;;;;;;;2.78;1.80;;;27.50;43.60;;;;;;4262184;27;20053;-70
2021/10/24 08:04:36;;;;;;;3.35;1.95;;;27.50;43.60;;;;;;4253151;27;20051;-72
2021/10/24 08:06:39;;;;;;;3.22;2.03;;;27.50;43.70;;;;;;4240265;27;20143;-73
2021/10/24 08:08:42;;;;;;;3.72;2.17;;;27.50;43.60;;;;;;4260879;27;20050;-73
2021/10/24 08:10:45;;;;;;;3.80;1.90;;;27.60;43.70;;;;;;4250651;27;20058;-74
2021/10/24 08:12:49;;;;;;;2.40;1.67;;;27.60;44.30;;;;;;4262498;27;20065;-68
2021/10/24 08:14:53;;;;;;;4.43;1.70;;;27.50;43.60;;;;;;4253733;27;20043;-71
2021/10/24 08:16:57;;;;;;;3.28;1.90;;;27.50;43.60;;;;;;4260292;27;20050;-70
2021/10/24 08:19:00;;;;;;;4.57;2.00;;;27.60;43.70;;;;;;4263882;27;20055;-73
2021/10/24 08:21:03;;;;;;;2.60;1.83;;;27.60;43.70;;;;;;4253614;27;20051;-68
2021/10/24 08:23:06;;;;;;;4.15;1.88;;;27.50;43.60;;;;;;4265398;27;20055;-70
2021/10/24 08:25:09;;;;;;;3.13;1.70;;;27.60;43.60;;;;;;4261223;27;20050;-71
2021/10/24 08:27:12;;;;;;;3.28;2.17;;;27.60;43.60;;;;;;4253187;27;20167;-72
2021/10/24 08:29:15;;;;;;;3.00;1.70;;;27.60;43.60;;;;;;4249394;27;20055;-75
2021/10/24 08:31:25;;;;;;;2.33;1.40;;;27.60;43.60;;;;;;4253481;27;20065;-71
2021/10/24 08:33:30;;;;;;;3.10;1.75;;;27.60;43.60;;;;;;4265234;27;20054;-70
2021/10/24 08:35:34;;;;;;;3.05;1.42;;;27.60;43.60;;;;;;4256820;27;20135;-66
2021/10/24 08:37:37;;;;;;;2.20;1.55;;;27.60;43.60;;;;;;4260867;27;20058;-67
2021/10/24 08:39:41;;;;;;;3.83;1.83;;;27.70;43.60;;;;;;4263641;27;20055;-67
2021/10/24 08:41:48;;;;;;;2.60;1.73;;;27.60;43.60;;;;;;4253506;27;20049;-73
2021/10/24 08:43:52;;;;;;;2.45;1.50;;;27.60;43.60;;;;;;4264977;27;20051;-73
2021/10/24 08:45:55;;;;;;;2.43;1.60;;;27.60;43.60;;;;;;4256298;27;20104;-69
2021/10/24 08:48:00;;;;;;;2.17;1.65;;;27.60;43.60;;;;;;4260846;27;20467;-71
2021/10/24 08:50:04;;;;;;;3.38;1.55;;;27.60;43.50;;;;;;4262486;27;20046;-74
2021/10/24 08:52:08;;;;;;;2.83;1.70;;;27.60;43.60;;;;;;4259400;27;20388;-73
2021/10/24 08:54:13;;;;;;;2.47;1.75;;;27.70;43.60;;;;;;4247782;27;20051;-74
2021/10/24 08:56:16;;;;;;;;;;;27.70;43.60;;;;;;4238026;27;20054;-69
2021/10/24 08:58:19;;;;;;;3.22;1.90;;;27.60;43.60;;;;;;4251918;27;20283;-69
2021/10/24 09:00:22;;;;;;;3.38;2.30;;;27.60;43.60;;;;;;4249092;27;20043;-73
2021/10/24 09:02:52;;;;;;;2.95;1.67;;;27.70;43.60;;;;;;4240657;27;20055;-72
2021/10/24 09:04:57;;;;;;;2.33;1.73;;;27.70;43.60;;;;;;4247438;27;20055;-77
2021/10/24 09:07:02;;;;;;;3.22;1.98;;;27.70;43.70;;;;;;4259182;27;20050;-67
2021/10/24 09:09:12;;;;;;;2.60;1.75;;;27.70;43.60;;;;;;4248115;27;20127;-70
2021/10/24 09:11:20;;;;;;;3.25;1.85;;;27.70;43.60;;;;;;4251218;27;20112;-71
2021/10/24 09:13:25;;;;;;;2.20;1.60;;;27.70;43.60;;;;;;4255168;27;20482;-69
2021/10/24 09:15:28;;;;;;;4.55;2.00;;;27.70;43.70;;;;;;4247599;27;20055;-73
2021/10/24 09:17:31;;;;;;;3.10;1.90;;;27.70;43.60;;;;;;4259743;27;20054;-71
2021/10/24 09:19:36;;;;;;;3.75;1.95;;;27.70;43.60;;;;;;4247614;27;20062;-73
2021/10/24 09:21:41;;;;;;;2.90;1.70;;;27.70;43.50;;;;;;4251699;27;20115;-75
2021/10/24 09:23:44;;;;;;;2.85;1.65;;;27.70;43.50;;;;;;4254105;27;20055;-71
2021/10/24 09:25:55;;;;;;;5.80;1.98;;;27.70;43.60;;;;;;4247071;27;20116;-70
2021/10/24 09:28:00;;;;;;;2.92;1.90;;;27.70;43.60;;;;;;4251346;27;20055;-67
2021/10/24 09:30:06;;;;;;;3.25;1.60;;;27.70;43.60;;;;;;4264727;27;20080;-69
2021/10/24 09:32:09;;;;;;;5.07;1.95;;;27.60;43.60;;;;;;4257820;27;20043;-73
2021/10/24 09:34:14;;;;;;;3.67;2.10;;;27.60;43.50;;;;;;4257096;27;20057;-71
2021/10/24 09:36:24;;;;;;;2.28;1.70;;;27.60;43.60;;;;;;4263603;27;20055;-70
2021/10/24 09:38:28;;;;;;;4.35;1.73;;;27.70;43.70;;;;;;4258840;27;20054;-72
2021/10/24 09:40:33;;;;;;;5.13;2.03;;;27.70;43.60;;;;;;4247195;27;20460;-71
2021/10/24 09:42:36;;;;;;;2.30;1.75;;;27.70;43.60;;;;;;4253647;27;20061;-69
2021/10/24 09:45:01;;;;;;;4.22;2.10;;;27.60;43.60;;;;;;4252781;27;20059;-71
2021/10/24 09:47:04;;;;;;;4.55;2.00;;;27.70;43.70;;;;;;4248270;27;20051;-70
2021/10/24 09:49:17;;;;;;;3.53;2.20;;;27.60;43.60;;;;;;4258492;27;20086;-72
2021/10/24 09:51:20;;;;;;;4.75;2.45;;;27.70;43.70;;;;;;4246856;27;20055;-74
2021/10/24 09:53:27;;;;;;;3.40;1.92;;;27.70;43.70;;;;;;4256585;27;20051;-70
2021/10/24 09:55:32;;;;;;;4.20;2.50;;;27.60;43.70;;;;;;4248124;27;20053;-70
2021/10/24 09:57:35;;;;;;;5.55;1.95;;;27.70;43.70;;;;;;4248570;27;20047;-68
2021/10/24 09:59:39;;;;;;;3.20;2.05;;;27.70;43.60;;;;;;4257298;27;20487;-72
2021/10/24 10:01:44;;;;;;;5.85;2.25;;;27.70;43.70;;;;;;4246682;27;20051;-74
2021/10/24 10:03:48;;;;;;;2.85;1.92;;;27.70;43.70;;;;;;4257465;27;20130;-74
2021/10/24 10:05:52;;;;;;;5.55;2.00;;;27.70;43.70;;;;;;4248190;27;20054;-67
2021/10/24 10:08:12;;;;;;;2.92;1.88;;;27.70;43.70;;;;;;4250716;27;20055;-74
2021/10/24 10:10:15;;;;;;;3.38;1.90;;;27.70;43.80;;;;;;4236739;27;20052;-69
2021/10/24 10:12:21;;;;;;;3.42;2.47;;;27.70;43.80;;;;;;4246852;27;20055;-74
2021/10/24 10:14:27;;;;;;;4.70;2.00;;;27.70;43.70;;;;;;4258732;27;20069;-74
2021/10/24 10:16:33;;;;;;;4.68;2.28;;;27.70;43.80;;;;;;4246370;27;20051;-69
2021/10/24 10:19:04;;;;;;;2.33;1.80;;;27.70;43.70;;;;;;4251208;27;20379;-73
2021/10/24 10:21:07;;;;;;;3.47;2.30;;;27.70;43.80;;;;;;4250026;27;20066;-71
2021/10/24 10:23:14;;;;;;;2.33;1.80;;;27.70;43.80;;;;;;4249882;27;20055;-69
2021/10/24 10:25:27;;;;;;;3.35;2.10;;;27.80;43.80;;;;;;4251427;27;20050;-72
2021/10/24 10:27:40;;;;;;;2.75;2.03;;;27.80;43.80;;;;;;4263413;27;20058;-75
2021/10/24 10:29:51;;;;;;;2.88;2.20;;;27.80;43.80;;;;;;4251640;27;20075;-71
2021/10/24 10:32:15;;;;;;;3.42;2.28;;;27.90;43.80;;;;;;4262884;27;20046;-72
2021/10/24 10:34:18;;;;;;;3.67;2.10;;;27.80;43.80;;;;;;4256355;27;20410;-69
2021/10/24 10:36:21;;;;;;;2.92;1.80;;;27.80;43.70;;;;;;4256681;27;20502;-72
2021/10/24 10:38:35;;;;;;;4.90;2.15;;;27.90;43.70;;;;;;4261734;27;20545;-71
2021/10/24 10:40:40;;;;;;;3.85;2.20;;;27.90;43.80;;;;;;4257433;27;20047;-69
2021/10/24 10:42:59;;;;;;;3.08;2.20;;;27.90;43.70;;;;;;4245859;27;20051;-69
2021/10/24 10:45:26;;;;;;;2.92;1.77;;;27.90;43.70;;;;;;4255474;27;20080;-73
2021/10/24 10:47:48;;;;;;;3.55;2.30;;;27.90;43.80;;;;;;4246172;27;20548;-68